Time;durP1;ratioP1;P1;durP2;ratioP2;P2;SDS_P1;SDS_P2;PMS_P1;PMS_P2;Temp;Humidity;BMP_temperature;BMP_pressure;BME280_temperature;BME280_humidity;BME280_pressure;Samples;Min_cycle;Max_cycle;Signal;HPM_P1;HPM_P2
2023/12/30 00:01:27;;;;;;;10.00;1.52;;;;;;;7.53;93.43;100931.94;5028727;28;20084;-74
2023/12/30 00:03:53;;;;;;;13.02;1.52;;;;;;;7.51;93.11;100934.59;5025178;28;20037;-74
2023/12/30 00:06:19;;;;;;;3.40;1.25;;;;;;;7.51;94.32;100942.41;5023148;28;20076;-74
2023/12/30 00:08:45;;;;;;;4.30;1.00;;;;;;;7.50;94.40;100945.94;5024462;28;20568;-74
2023/12/30 00:11:10;;;;;;;4.88;0.90;;;;;;;7.44;93.64;100941.72;5022579;28;20132;-74
2023/12/30 00:13:38;;;;;;;3.53;0.88;;;;;;;7.45;93.81;100938.22;5026051;28;20034;-74
2023/12/30 00:16:04;;;;;;;6.87;1.10;;;;;;;7.44;93.54;100941.72;5021599;28;20052;-74
2023/12/30 00:18:29;;;;;;;9.38;1.45;;;;;;;7.40;93.32;100949.66;5024945;28;20288;-74
2023/12/30 00:20:55;;;;;;;4.70;0.98;;;;;;;7.40;94.19;100945.28;5025555;28;20358;-74
2023/12/30 00:23:20;;;;;;;7.97;1.10;;;;;;;7.39;95.08;100937.53;5023955;28;20048;-74
2023/12/30 00:25:46;;;;;;;4.65;0.95;;;;;;;7.39;95.28;100942.75;5023238;28;20045;-74
2023/12/30 00:28:12;;;;;;;7.72;1.50;;;;;;;7.38;94.68;100949.69;5024462;28;20103;-74
2023/12/30 00:30:37;;;;;;;4.85;0.75;;;;;;;7.37;94.61;100945.38;5022212;28;20101;-73
2023/12/30 00:33:03;;;;;;;4.63;0.80;;;;;;;7.33;94.16;100941.16;5021901;28;20052;-74
2023/12/30 00:35:29;;;;;;;2.60;0.65;;;;;;;7.32;94.80;100939.44;5023187;28;20036;-74
2023/12/30 00:37:54;;;;;;;5.80;1.05;;;;;;;7.34;95.22;100947.22;5025126;28;20264;-74
2023/12/30 00:40:20;;;;;;;6.13;1.27;;;;;;;7.27;94.22;100952.56;5026535;28;20048;-74
2023/12/30 00:42:45;;;;;;;6.53;1.05;;;;;;;7.23;94.62;100961.34;5033239;28;20061;-74
2023/12/30 00:45:10;;;;;;;10.15;1.05;;;;;;;7.26;94.74;100963.06;5017618;28;20042;-74
2023/12/30 00:47:36;;;;;;;10.45;1.52;;;;;;;7.26;94.88;100963.91;5033141;28;20106;-74
2023/12/30 00:50:02;;;;;;;4.53;1.40;;;;;;;7.27;95.76;100960.38;5035042;28;20029;-74
2023/12/30 00:52:27;;;;;;;5.38;1.25;;;;;;;7.29;95.93;100960.34;5037420;28;20051;-74
2023/12/30 00:54:53;;;;;;;6.18;1.52;;;;;;;7.24;95.34;100954.38;5026025;28;20041;-74
2023/12/30 00:57:18;;;;;;;4.97;1.35;;;;;;;7.23;96.13;100970.94;5017161;28;20357;-74
2023/12/30 00:59:43;;;;;;;5.50;0.90;;;;;;;7.22;95.73;100971.81;5024437;28;20187;-74
2023/12/30 01:02:08;;;;;;;3.08;0.70;;;;;;;7.23;95.23;100976.13;5018034;28;20072;-74
2023/12/30 01:04:34;;;;;;;7.85;1.30;;;;;;;7.26;95.70;100973.47;5020001;28;20081;-74
2023/12/30 01:06:59;;;;;;;8.48;1.20;;;;;;;7.23;95.47;100971.78;5036181;28;20036;-74
2023/12/30 01:09:24;;;;;;;6.40;0.95;;;;;;;7.24;95.51;100972.63;5036709;28;20179;-74
2023/12/30 01:11:50;;;;;;;8.50;1.15;;;;;;;7.18;95.51;100976.25;5036648;28;20371;-73
2023/12/30 01:14:15;;;;;;;10.95;1.50;;;;;;;7.16;94.96;100972.81;5036640;28;20040;-74
2023/12/30 01:16:41;;;;;;;7.43;0.90;;;;;;;7.18;94.71;100983.22;5034270;28;20328;-74
2023/12/30 01:19:06;;;;;;;5.10;1.13;;;;;;;7.19;95.35;100979.72;5016255;28;20045;-74
2023/12/30 01:21:31;;;;;;;3.80;0.80;;;;;;;7.18;95.64;100971.03;5017208;28;20260;-74
2023/12/30 01:23:57;;;;;;;5.22;1.20;;;;;;;7.11;94.84;100975.56;5016224;28;20034;-74
2023/12/30 01:26:23;;;;;;;5.22;1.25;;;;;;;7.11;95.42;100977.28;5016835;28;20029;-74
2023/12/30 01:28:48;;;;;;;11.68;1.60;;;;;;;7.10;95.79;100973.81;5016898;28;20455;-74
2023/12/30 01:31:15;;;;;;;3.65;1.10;;;;;;;7.09;96.00;100979.06;5015616;28;20124;-74
2023/12/30 01:33:40;;;;;;;5.82;1.23;;;;;;;7.06;95.94;100984.38;5016676;28;20038;-74
2023/12/30 01:36:06;;;;;;;9.35;1.35;;;;;;;7.05;95.55;100987.84;5016111;28;20064;-74
2023/12/30 01:38:31;;;;;;;7.38;1.85;;;;;;;7.03;95.42;100980.06;5016701;28;20033;-74
2023/12/30 01:40:57;;;;;;;5.15;0.90;;;;;;;7.05;95.64;100995.66;5015921;28;20417;-74
2023/12/30 01:43:27;;;;;;;4.25;0.80;;;;;;;7.01;95.03;100992.28;5016499;28;20101;-74
2023/12/30 01:45:55;;;;;;;8.40;1.10;;;;;;;7.02;95.06;101003.53;5016204;28;20031;-74
2023/12/30 01:48:22;;;;;;;5.88;1.10;;;;;;;7.02;94.72;101001.81;5015744;28;20030;-74
2023/12/30 01:50:49;;;;;;;8.32;1.63;;;;;;;6.98;94.64;101012.31;5017735;28;20031;-74
2023/12/30 01:53:17;;;;;;;8.98;1.92;;;;;;;6.95;94.83;101018.47;5018058;28;20092;-74
2023/12/30 01:55:43;;;;;;;5.30;1.20;;;;;;;6.94;95.18;101014.13;5027382;28;20032;-74
2023/12/30 01:58:09;;;;;;;9.63;1.25;;;;;;;6.92;95.06;101024.59;5015686;28;20041;-74
2023/12/30 02:00:36;;;;;;;6.93;1.63;;;;;;;6.85;95.77;101024.75;5016954;28;20045;-74
2023/12/30 02:03:03;;;;;;;5.30;1.27;;;;;;;6.84;96.63;101021.31;5032071;28;20352;-74
2023/12/30 02:05:28;;;;;;;10.70;1.48;;;;;;;6.84;96.29;101021.31;5035483;28;20329;-74
2023/12/30 02:07:54;;;;;;;9.10;1.45;;;;;;;6.79;96.23;101035.31;5034972;28;20041;-74
2023/12/30 02:10:20;;;;;;;6.65;1.60;;;;;;;6.78;96.11;101029.25;5035670;28;20037;-74
2023/12/30 02:12:45;;;;;;;4.57;1.35;;;;;;;6.80;96.60;101037.03;5035566;28;20060;-74
2023/12/30 02:15:14;;;;;;;4.50;1.10;;;;;;;6.80;96.93;101037.88;5034922;28;20039;-74
2023/12/30 02:17:40;;;;;;;7.25;1.15;;;;;;;6.82;96.38;101041.31;5035239;28;20037;-74
2023/12/30 02:20:06;;;;;;;8.32;1.58;;;;;;;6.77;96.60;101032.75;5024250;28;20336;-74
2023/12/30 02:22:31;;;;;;;4.95;0.90;;;;;;;6.80;96.99;101035.25;5019427;28;20033;-74
2023/12/30 02:24:59;;;;;;;6.10;1.42;;;;;;;6.80;97.15;101035.25;5035039;28;20041;-74
2023/12/30 02:27:25;;;;;;;3.97;0.93;;;;;;;6.82;97.14;101033.50;5034882;28;20407;-74
2023/12/30 02:29:51;;;;;;;8.35;1.13;;;;;;;6.78;97.12;101044.00;5022559;28;20037;-74
2023/12/30 02:32:16;;;;;;;9.88;1.35;;;;;;;6.70;97.22;101047.63;5034719;28;20072;-74
2023/12/30 02:34:41;;;;;;;7.97;1.10;;;;;;;6.66;97.35;101043.38;5033223;28;20063;-74
2023/12/30 02:37:07;;;;;;;7.45;1.05;;;;;;;6.61;97.53;101047.81;5034907;28;20036;-74
2023/12/30 02:39:32;;;;;;;8.45;1.45;;;;;;;6.64;98.20;101050.38;5033950;28;20065;-73
2023/12/30 02:41:57;;;;;;;5.70;1.55;;;;;;;6.64;98.34;101047.78;5034565;28;20072;-74
2023/12/30 02:44:23;;;;;;;8.48;1.25;;;;;;;6.61;97.89;101053.03;5034896;28;20036;-74
2023/12/30 02:46:48;;;;;;;10.13;1.33;;;;;;;6.63;98.33;101051.25;5034777;28;20419;-74
2023/12/30 02:49:14;;;;;;;7.57;1.05;;;;;;;6.70;98.25;101049.38;5033275;28;20045;-74
2023/12/30 02:51:39;;;;;;;5.85;1.20;;;;;;;6.67;98.36;101052.03;5035427;28;20075;-74
2023/12/30 02:54:04;;;;;;;11.88;1.67;;;;;;;6.63;98.07;101040.84;5033857;28;20114;-74
2023/12/30 02:56:30;;;;;;;3.58;1.23;;;;;;;6.66;98.63;101052.94;5034455;28;20332;-74
2023/12/30 02:59:00;;;;;;;10.32;1.48;;;;;;;6.67;98.29;101057.25;5033589;28;20087;-74
2023/12/30 03:01:27;;;;;;;10.57;1.63;;;;;;;6.63;97.79;101053.00;5033191;28;20084;-74
2023/12/30 03:03:54;;;;;;;9.50;1.33;;;;;;;6.62;97.96;101052.16;5030636;28;20059;-77
2023/12/30 03:06:21;;;;;;;5.65;1.15;;;;;;;6.61;97.86;101052.19;5021469;28;20234;-77
2023/12/30 03:08:47;;;;;;;6.63;1.10;;;;;;;6.62;96.99;101053.88;5029867;28;20391;-77
2023/12/30 03:11:12;;;;;;;3.85;0.95;;;;;;;6.62;97.25;101046.94;5033793;28;20040;-77
2023/12/30 03:13:38;;;;;;;8.23;1.38;;;;;;;6.63;97.03;101048.66;5034605;28;20255;-77
2023/12/30 03:16:03;;;;;;;9.02;1.38;;;;;;;6.64;96.71;101052.09;5033004;28;20060;-77
2023/12/30 03:18:30;;;;;;;3.38;0.85;;;;;;;6.65;96.57;101057.28;5029014;28;20030;-77
2023/12/30 03:20:55;;;;;;;5.45;1.25;;;;;;;6.64;96.94;101049.50;5017682;28;20068;-77
2023/12/30 03:23:20;;;;;;;13.02;1.52;;;;;;;6.70;96.19;101072.81;5033943;28;20037;-77
2023/12/30 03:25:46;;;;;;;3.70;1.40;;;;;;;6.70;96.18;101068.44;5032814;28;20258;-77
2023/12/30 03:28:11;;;;;;;11.27;1.25;;;;;;;6.76;96.08;101071.81;5031307;28;20045;-77
2023/12/30 03:30:36;;;;;;;5.72;1.23;;;;;;;6.78;96.38;101076.09;5032739;28;20048;-77
2023/12/30 03:33:02;;;;;;;11.70;1.00;;;;;;;6.75;97.13;101068.38;5032262;28;20049;-77
2023/12/30 03:35:27;;;;;;;4.68;0.90;;;;;;;6.75;97.20;101057.97;5034085;28;20029;-77
2023/12/30 03:37:52;;;;;;;11.25;1.42;;;;;;;6.73;97.17;101067.53;5031162;28;20041;-77
2023/12/30 03:40:18;;;;;;;9.85;1.27;;;;;;;6.71;96.94;101066.69;5034394;28;20040;-77
2023/12/30 03:42:43;;;;;;;5.72;1.30;;;;;;;6.77;97.46;101071.78;5033443;28;20045;-77
2023/12/30 03:45:09;;;;;;;6.70;1.10;;;;;;;6.77;97.62;101056.19;5033780;28;20043;-77
2023/12/30 03:47:34;;;;;;;6.72;1.42;;;;;;;6.75;97.60;101060.56;5029896;28;20049;-77
2023/12/30 03:49:59;;;;;;;3.92;1.00;;;;;;;6.72;97.96;101064.06;5019480;28;20064;-77
2023/12/30 03:52:26;;;;;;;18.90;1.83;;;;;;;6.71;97.24;101059.78;5024320;28;20033;-77
2023/12/30 03:54:53;;;;;;;4.38;0.95;;;;;;;6.72;97.25;101060.63;5033618;28;20037;-77
2023/12/30 03:57:18;;;;;;;4.45;1.10;;;;;;;6.74;97.05;101066.66;5033238;28;20087;-77
2023/12/30 03:59:43;;;;;;;6.03;1.58;;;;;;;6.78;97.50;101068.28;5033469;28;20033;-74
2023/12/30 04:02:09;;;;;;;10.40;1.45;;;;;;;6.81;97.57;101064.78;5033084;28;20040;-74
2023/12/30 04:04:35;;;;;;;8.32;1.30;;;;;;;6.82;96.73;101071.69;5033978;28;20270;-74
2023/12/30 04:07:00;;;;;;;6.60;0.93;;;;;;;6.80;96.64;101071.72;5031053;28;20044;-74
2023/12/30 04:09:26;;;;;;;4.80;0.77;;;;;;;6.75;96.53;101070.97;5025090;28;20076;-74
2023/12/30 04:11:51;;;;;;;7.47;1.15;;;;;;;6.76;97.22;101066.63;5031685;28;20040;-74
2023/12/30 04:14:16;;;;;;;9.15;1.40;;;;;;;6.73;97.64;101071.00;5022127;28;20034;-74
2023/12/30 04:16:41;;;;;;;6.35;0.93;;;;;;;6.75;97.73;101064.88;5027217;28;20355;-74
2023/12/30 04:19:07;;;;;;;6.80;1.00;;;;;;;6.71;97.26;101074.50;5035405;28;20246;-74
2023/12/30 04:21:32;;;;;;;12.65;1.20;;;;;;;6.69;96.93;101079.78;5020424;28;20235;-74
2023/12/30 04:23:57;;;;;;;9.68;0.90;;;;;;;6.68;97.00;101079.78;5038764;28;20103;-74
2023/12/30 04:26:23;;;;;;;7.45;1.30;;;;;;;6.68;97.73;101078.03;5039730;28;20232;-74
2023/12/30 04:28:48;;;;;;;6.45;1.08;;;;;;;6.70;97.62;101086.69;5039759;28;20236;-74
2023/12/30 04:31:14;;;;;;;6.95;1.27;;;;;;;6.67;97.53;101076.31;5032382;28;20042;-74
2023/12/30 04:33:39;;;;;;;6.43;1.13;;;;;;;6.67;97.67;101086.72;5027809;28;20321;-74
2023/12/30 04:36:05;;;;;;;5.75;0.93;;;;;;;6.67;97.29;101085.88;5039267;28;20343;-74
2023/12/30 04:38:31;;;;;;;9.00;1.33;;;;;;;6.66;97.06;101092.00;5021457;28;20327;-74
2023/12/30 04:40:56;;;;;;;6.32;1.55;;;;;;;6.68;97.03;101091.06;5019728;28;20042;-74
2023/12/30 04:43:21;;;;;;;4.95;0.75;;;;;;;6.66;97.31;101092.00;5020553;28;20032;-74
2023/12/30 04:45:47;;;;;;;12.23;1.13;;;;;;;6.66;97.26;101092.84;5020322;28;20221;-74
2023/12/30 04:48:12;;;;;;;7.72;0.85;;;;;;;6.66;96.52;101092.00;5035059;28;20130;-74
2023/12/30 04:50:38;;;;;;;4.78;0.98;;;;;;;6.67;96.59;101091.94;5020923;28;20041;-74
2023/12/30 04:53:03;;;;;;;9.13;1.13;;;;;;;6.68;96.88;101088.44;5023442;28;20044;-74
2023/12/30 04:55:29;;;;;;;5.53;1.90;;;;;;;6.71;96.87;101097.94;5040026;28;20052;-74
2023/12/30 04:57:54;;;;;;;2.47;0.80;;;;;;;6.75;97.17;101101.34;5037549;28;20252;-74
2023/12/30 05:00:20;;;;;;;8.60;1.33;;;;;;;6.71;96.40;101097.94;5039363;28;20166;-74
2023/12/30 05:02:46;;;;;;;5.70;1.08;;;;;;;6.69;95.99;101099.72;5039353;28;20396;-74
2023/12/30 05:05:11;;;;;;;5.13;0.98;;;;;;;6.70;95.76;101104.91;5039142;28;20104;-74
2023/12/30 05:07:37;;;;;;;3.65;1.02;;;;;;;6.75;96.42;101098.72;5029146;28;20045;-77
2023/12/30 05:10:03;;;;;;;6.30;1.13;;;;;;;6.70;96.73;101104.91;5020571;28;20356;-77
2023/12/30 05:12:28;;;;;;;15.20;1.52;;;;;;;6.71;96.72;101105.75;5021594;28;20029;-77
2023/12/30 05:14:54;;;;;;;9.50;1.45;;;;;;;6.71;96.60;101109.22;5023323;28;20231;-77
2023/12/30 05:17:20;;;;;;;6.32;1.30;;;;;;;6.66;95.94;101100.66;5039138;28;20372;-77
2023/12/30 05:19:45;;;;;;;9.25;1.40;;;;;;;6.64;95.74;101105.03;5038904;28;20100;-77
2023/12/30 05:22:11;;;;;;;10.13;1.33;;;;;;;6.64;96.20;101107.63;5034665;28;20048;-77
2023/12/30 05:24:36;;;;;;;4.63;1.00;;;;;;;6.64;96.08;101117.16;5017102;28;20048;-77
2023/12/30 05:27:01;;;;;;;8.40;1.10;;;;;;;6.63;95.79;101118.91;5021472;28;20048;-77
2023/12/30 05:29:28;;;;;;;5.43;1.05;;;;;;;6.61;96.14;101125.91;5036059;28;20041;-77
2023/12/30 05:31:53;;;;;;;5.20;1.20;;;;;;;6.58;96.11;101125.94;5035657;28;20043;-77
2023/12/30 05:34:18;;;;;;;10.38;1.40;;;;;;;6.56;96.30;101129.47;5036618;28;20120;-77
2023/12/30 05:36:44;;;;;;;12.70;1.30;;;;;;;6.52;96.24;101116.53;5032656;28;20133;-77
2023/12/30 05:39:09;;;;;;;8.40;1.00;;;;;;;6.46;96.26;101128.81;5016215;28;20359;-77
2023/12/30 05:41:34;;;;;;;2.85;0.65;;;;;;;6.43;96.24;101129.72;5016689;28;20321;-77
2023/12/30 05:44:00;;;;;;;6.25;1.60;;;;;;;6.45;96.81;101133.13;5015900;28;20040;-77
2023/12/30 05:46:26;;;;;;;9.63;1.23;;;;;;;6.47;97.04;101131.34;5027601;28;20263;-77
2023/12/30 05:48:52;;;;;;;8.23;1.48;;;;;;;6.40;96.55;101134.13;5035917;28;20037;-77
2023/12/30 05:51:17;;;;;;;4.70;1.17;;;;;;;6.38;96.64;101133.28;5035848;28;20189;-77
2023/12/30 05:53:43;;;;;;;7.55;1.52;;;;;;;6.41;96.96;101133.25;5035382;28;20093;-77
2023/12/30 05:56:08;;;;;;;8.95;1.38;;;;;;;6.38;97.35;101126.34;5025231;28;20038;-77
2023/12/30 05:58:34;;;;;;;6.03;1.00;;;;;;;6.39;96.99;101132.41;5016260;28;20107;-77
2023/12/30 06:01:01;;;;;;;3.67;0.80;;;;;;;6.39;96.86;101128.06;5018500;28;20037;-77
2023/12/30 06:03:27;;;;;;;10.73;1.33;;;;;;;6.41;96.73;101139.28;5035220;28;20069;-77
2023/12/30 06:05:52;;;;;;;6.28;1.23;;;;;;;6.42;96.70;101134.94;5028972;28;20233;-77
2023/12/30 06:08:17;;;;;;;5.00;1.05;;;;;;;6.42;96.98;101145.34;5035584;28;20270;-77
2023/12/30 06:10:43;;;;;;;6.03;0.95;;;;;;;6.40;96.67;101142.75;5035360;28;20168;-77
2023/12/30 06:13:08;;;;;;;7.28;1.10;;;;;;;6.41;97.18;101147.09;5034316;28;20044;-77
2023/12/30 06:15:34;;;;;;;5.22;0.93;;;;;;;6.40;97.00;101155.78;5034830;28;20040;-77
2023/12/30 06:18:00;;;;;;;5.93;1.15;;;;;;;6.40;97.01;101157.53;5034053;28;20381;-77
2023/12/30 06:20:26;;;;;;;3.05;0.93;;;;;;;6.41;97.51;101147.09;5032312;28;20248;-77
2023/12/30 06:22:51;;;;;;;10.27;1.00;;;;;;;6.41;97.63;101148.84;5028414;28;20044;-77
2023/12/30 06:25:16;;;;;;;7.72;0.82;;;;;;;6.41;98.36;101146.25;5033657;28;20041;-77
2023/12/30 06:27:42;;;;;;;4.80;1.00;;;;;;;6.45;98.74;101147.91;5017769;28;20459;-77
2023/12/30 06:30:08;;;;;;;2.53;0.88;;;;;;;6.44;99.29;101147.06;5015045;28;20297;-77
2023/12/30 06:32:33;;;;;;;3.95;0.80;;;;;;;6.48;99.66;101151.31;5015548;28;20041;-77
2023/12/30 06:34:58;;;;;;;10.55;1.15;;;;;;;6.48;99.28;101140.91;5014824;28;20033;-77
2023/12/30 06:37:24;;;;;;;3.75;0.82;;;;;;;6.50;99.63;101146.06;5017537;28;20041;-77
2023/12/30 06:39:49;;;;;;;6.97;0.98;;;;;;;6.52;99.59;101144.28;5016434;28;20084;-77
2023/12/30 06:42:14;;;;;;;4.32;0.80;;;;;;;6.53;99.73;101146.00;5016340;28;20356;-77
2023/12/30 06:44:40;;;;;;;10.18;1.05;;;;;;;6.56;100.00;101143.34;5015336;28;20248;-77
2023/12/30 06:47:05;;;;;;;6.13;1.13;;;;;;;6.59;99.99;101143.28;5033102;28;20037;-77
2023/12/30 06:49:30;;;;;;;4.57;0.90;;;;;;;6.63;99.95;101144.94;5034080;28;20043;-77
2023/12/30 06:51:56;;;;;;;4.93;1.15;;;;;;;6.66;100.00;101134.47;5034257;28;20284;-76
2023/12/30 06:54:22;;;;;;;5.28;1.05;;;;;;;6.69;100.00;101136.16;5033460;28;20041;-77
2023/12/30 06:56:49;;;;;;;8.82;1.17;;;;;;;6.69;100.00;101126.63;5028921;28;20120;-77
2023/12/30 06:59:15;;;;;;;11.40;1.23;;;;;;;6.68;100.00;101122.28;5033981;28;20065;-76
2023/12/30 07:01:41;;;;;;;7.88;1.38;;;;;;;6.73;100.00;101119.56;5017339;28;20383;-76
2023/12/30 07:04:07;;;;;;;8.35;1.33;;;;;;;6.78;100.00;101127.31;5027415;28;20140;-76
2023/12/30 07:06:32;;;;;;;11.15;1.38;;;;;;;6.77;100.00;101122.97;5022295;28;20037;-76
2023/12/30 07:08:57;;;;;;;14.55;1.65;;;;;;;6.75;100.00;101127.38;5025202;28;20276;-76
2023/12/30 07:11:23;;;;;;;5.20;1.20;;;;;;;6.75;100.00;101133.44;5022717;28;20092;-76
2023/12/30 07:13:49;;;;;;;10.15;1.70;;;;;;;6.75;100.00;101127.38;5031267;28;20352;-76
2023/12/30 07:16:15;;;;;;;5.25;1.10;;;;;;;6.72;100.00;101144.75;5027371;28;20033;-76
2023/12/30 07:18:41;;;;;;;10.25;1.45;;;;;;;6.68;100.00;101145.72;5019946;28;20038;-76
2023/12/30 07:21:06;;;;;;;8.77;1.50;;;;;;;6.67;100.00;101146.59;5023120;28;20034;-76
2023/12/30 07:23:31;;;;;;;5.25;1.10;;;;;;;6.73;100.00;101156.03;5017774;28;20229;-77
2023/12/30 07:25:57;;;;;;;8.55;1.25;;;;;;;6.75;100.00;101154.28;5027149;28;20456;-77
2023/12/30 07:28:22;;;;;;;8.40;1.42;;;;;;;6.76;100.00;101147.31;5031035;28;20064;-76
2023/12/30 07:30:48;;;;;;;7.88;1.60;;;;;;;6.73;100.00;101150.81;5034318;28;20041;-77
2023/12/30 07:33:14;;;;;;;8.25;1.23;;;;;;;6.69;100.00;101157.84;5025337;28;20025;-77
2023/12/30 07:35:39;;;;;;;16.00;2.22;;;;;;;6.66;100.00;101157.91;5029915;28;20250;-76
2023/12/30 07:38:04;;;;;;;14.13;1.60;;;;;;;6.69;100.00;101165.66;5018689;28;20068;-76
2023/12/30 07:40:30;;;;;;;3.25;0.93;;;;;;;6.71;100.00;101170.81;5022386;28;20289;-76
2023/12/30 07:42:55;;;;;;;4.90;1.35;;;;;;;6.68;100.00;101178.69;5022490;28;20041;-77
2023/12/30 07:45:20;;;;;;;4.32;1.17;;;;;;;6.68;100.00;101182.16;5031192;28;20052;-76
2023/12/30 07:47:46;;;;;;;4.20;1.10;;;;;;;6.69;100.00;101186.50;5023981;28;20048;-76
2023/12/30 07:50:11;;;;;;;5.40;1.52;;;;;;;6.70;100.00;101182.97;5023654;28;20029;-76
2023/12/30 07:52:36;;;;;;;5.97;1.40;;;;;;;6.69;100.00;101189.09;5024503;28;20041;-76
2023/12/30 07:55:02;;;;;;;5.38;1.13;;;;;;;6.67;100.00;101200.41;5023376;28;20053;-76
2023/12/30 07:57:27;;;;;;;4.03;1.10;;;;;;;6.67;100.00;101196.03;5025122;28;20053;-76
2023/12/30 07:59:53;;;;;;;4.93;1.40;;;;;;;6.66;100.00;101196.94;5025002;28;20045;-76
2023/12/30 08:02:19;;;;;;;2.15;0.93;;;;;;;6.64;100.00;101188.31;5026135;28;20037;-76
2023/12/30 08:04:44;;;;;;;8.65;1.92;;;;;;;6.63;100.00;101193.53;5023668;28;20652;-76
2023/12/30 08:07:11;;;;;;;5.70;1.27;;;;;;;6.60;100.00;101184.03;5020805;28;20041;-76
2023/12/30 08:09:37;;;;;;;6.35;1.20;;;;;;;6.58;100.00;101197.97;5023501;28;20116;-76
2023/12/30 08:12:03;;;;;;;8.45;1.48;;;;;;;6.60;100.00;101194.44;5023396;28;20367;-76
2023/12/30 08:14:29;;;;;;;7.80;1.38;;;;;;;6.60;100.00;101191.84;5020860;28;20144;-76
2023/12/30 08:16:54;;;;;;;8.68;1.60;;;;;;;6.60;100.00;101197.03;5022277;28;20106;-76
2023/12/30 08:19:20;;;;;;;4.10;1.30;;;;;;;6.65;100.00;101199.56;5024035;28;20037;-76
2023/12/30 08:21:45;;;;;;;8.68;1.42;;;;;;;6.66;100.00;101196.09;5024389;28;20101;-76
2023/12/30 08:24:14;;;;;;;11.32;1.73;;;;;;;6.67;100.00;101200.41;5023128;28;20033;-76
2023/12/30 08:26:39;;;;;;;12.05;2.35;;;;;;;6.68;100.00;101197.78;5025680;28;20061;-76
2023/12/30 08:29:08;;;;;;;9.32;1.38;;;;;;;6.70;100.00;101203.81;5024456;28;20341;-76
2023/12/30 08:31:35;;;;;;;5.00;1.55;;;;;;;6.73;100.00;101214.16;5025271;28;20041;-76
2023/12/30 08:34:00;;;;;;;9.98;2.15;;;;;;;6.72;100.00;101215.03;5022426;28;20100;-76
2023/12/30 08:36:28;;;;;;;5.35;1.00;;;;;;;6.76;100.00;101204.59;5028452;28;20306;-77
2023/12/30 08:38:53;;;;;;;12.93;1.95;;;;;;;6.74;100.00;101196.78;5036058;28;20045;-77
2023/12/30 08:41:24;;;;;;;5.63;1.05;;;;;;;6.76;100.00;101199.38;5033159;28;20028;-76
2023/12/30 08:43:52;;;;;;;9.73;1.67;;;;;;;6.77;100.00;101201.94;5033056;28;20324;-77
2023/12/30 08:46:17;;;;;;;5.05;1.65;;;;;;;6.80;100.00;101203.63;5032661;28;20029;-77
2023/12/30 08:48:43;;;;;;;4.25;0.98;;;;;;;6.82;100.00;101201.84;5032975;28;20048;-76
2023/12/30 08:51:08;;;;;;;19.50;3.42;;;;;;;6.82;100.00;101217.47;5032437;28;20033;-76
2023/12/30 08:53:33;;;;;;;6.68;1.73;;;;;;;6.83;100.00;101216.59;5033111;28;20029;-77
2023/12/30 08:56:01;;;;;;;8.30;2.40;;;;;;;6.84;100.00;101218.28;5020305;28;20029;-76
2023/12/30 08:58:27;;;;;;;8.15;1.67;;;;;;;6.84;100.00;101210.47;5023937;28;20416;-76
2023/12/30 09:00:53;;;;;;;11.27;1.90;;;;;;;6.87;100.00;101218.25;5028077;28;20374;-76
2023/12/30 09:03:18;;;;;;;9.60;1.63;;;;;;;6.86;100.00;101217.41;5034356;28;20237;-76
2023/12/30 09:05:44;;;;;;;11.07;2.85;;;;;;;6.86;100.00;101217.41;5033067;28;20325;-76
2023/12/30 09:08:10;;;;;;;10.95;1.83;;;;;;;6.88;100.00;101217.38;5033687;28;20037;-77
2023/12/30 09:10:35;;;;;;;9.90;2.10;;;;;;;6.88;100.00;101214.75;5031109;28;20053;-77
2023/12/30 09:13:01;;;;;;;6.80;2.10;;;;;;;6.88;100.00;101215.63;5028420;28;20041;-77
2023/12/30 09:15:26;;;;;;;8.63;1.73;;;;;;;6.86;100.00;101216.53;5026971;28;20029;-77
2023/12/30 09:17:52;;;;;;;8.15;1.40;;;;;;;6.88;100.00;101218.22;5045395;28;20277;-76
2023/12/30 09:20:17;;;;;;;12.20;1.63;;;;;;;6.92;100.00;101229.44;5035445;28;20221;-76
2023/12/30 09:22:43;;;;;;;9.18;1.83;;;;;;;6.92;100.00;101232.03;5037884;28;20346;-76
2023/12/30 09:25:08;;;;;;;13.23;1.92;;;;;;;6.98;100.00;101231.06;5036011;28;20028;-76
2023/12/30 09:27:34;;;;;;;11.85;2.13;;;;;;;7.04;100.00;101230.91;5037039;28;20336;-77
2023/12/30 09:29:59;;;;;;;8.27;1.80;;;;;;;7.09;100.00;101231.69;5032500;28;20048;-77
2023/12/30 09:32:25;;;;;;;8.90;1.83;;;;;;;7.14;100.00;101229.88;5037065;28;20037;-77
2023/12/30 09:34:50;;;;;;;12.07;2.05;;;;;;;7.16;100.00;101229.84;5034060;28;20059;-77
2023/12/30 09:37:17;;;;;;;12.48;2.15;;;;;;;7.09;100.00;101222.16;5032906;28;20105;-77
2023/12/30 09:39:43;;;;;;;10.68;1.60;;;;;;;7.15;100.00;101234.19;5029469;28;20045;-77
2023/12/30 09:42:09;;;;;;;6.50;1.70;;;;;;;7.18;100.00;101241.09;5033602;28;20748;-76
2023/12/30 09:44:35;;;;;;;13.85;2.50;;;;;;;7.19;100.00;101241.06;5036032;28;20031;-77
2023/12/30 09:47:06;;;;;;;11.18;2.55;;;;;;;7.21;100.00;101246.25;5038383;28;20039;-76
2023/12/30 09:49:35;;;;;;;10.60;1.50;;;;;;;7.22;100.00;101247.94;5037769;28;20060;-76
2023/12/30 09:52:03;;;;;;;6.05;1.30;;;;;;;7.26;100.00;101255.66;5039929;28;20033;-76
2023/12/30 09:54:29;;;;;;;13.77;2.03;;;;;;;7.28;100.00;101258.25;5038698;28;20032;-77
2023/12/30 09:56:56;;;;;;;11.60;1.80;;;;;;;7.30;100.00;101254.72;5036660;28;20095;-76
2023/12/30 09:59:23;;;;;;;8.70;1.33;;;;;;;7.35;100.00;101258.97;5031722;28;20037;-76
2023/12/30 10:01:49;;;;;;;10.93;1.77;;;;;;;7.38;100.00;101269.34;5038357;28;20036;-76
2023/12/30 10:04:15;;;;;;;12.60;1.88;;;;;;;7.38;100.00;101269.34;5036816;28;20241;-76
2023/12/30 10:06:42;;;;;;;13.82;2.33;;;;;;;7.41;100.00;101267.53;5035727;28;20028;-76
2023/12/30 10:09:09;;;;;;;13.27;1.85;;;;;;;7.41;100.00;101257.09;5040408;28;20082;-76
2023/12/30 10:11:35;;;;;;;14.75;2.00;;;;;;;7.43;100.00;101262.28;5048661;28;20103;-76
2023/12/30 10:14:02;;;;;;;11.45;2.03;;;;;;;7.46;100.00;101267.44;5047781;28;20320;-76
2023/12/30 10:16:29;;;;;;;8.75;2.17;;;;;;;7.52;100.00;101256.03;5049074;28;20061;-76
2023/12/30 10:18:55;;;;;;;10.90;2.03;;;;;;;7.55;100.00;101256.81;5042695;28;20112;-76
2023/12/30 10:21:21;;;;;;;25.77;2.20;;;;;;;7.56;100.00;101252.47;5048518;28;20079;-76
2023/12/30 10:23:51;;;;;;;10.63;2.00;;;;;;;7.57;100.00;101260.25;5048240;28;20032;-76
2023/12/30 10:26:17;;;;;;;7.18;2.03;;;;;;;7.58;100.00;101251.53;5046353;28;20033;-76
2023/12/30 10:28:44;;;;;;;13.77;2.63;;;;;;;7.61;100.00;101241.03;5043076;28;20595;-76
2023/12/30 10:31:11;;;;;;;16.80;2.53;;;;;;;7.67;100.00;101238.28;5035149;28;20037;-76
2023/12/30 10:33:37;;;;;;;13.40;2.50;;;;;;;7.71;100.00;101235.63;5035545;28;20065;-77
2023/12/30 10:36:05;;;;;;;15.50;2.60;;;;;;;7.72;100.00;101235.59;5034866;28;20071;-76
2023/12/30 10:38:32;;;;;;;14.50;2.72;;;;;;;7.77;100.00;101233.75;5034646;28;20358;-76
2023/12/30 10:40:57;;;;;;;13.25;2.40;;;;;;;7.77;100.00;101225.91;5030224;28;20033;-76
2023/12/30 10:43:23;;;;;;;11.15;2.53;;;;;;;7.81;100.00;101227.56;5038915;28;20106;-76
2023/12/30 10:45:56;;;;;;;16.20;3.35;;;;;;;7.82;100.00;101224.06;5037072;28;20062;-76
2023/12/30 10:48:23;;;;;;;20.35;2.95;;;;;;;7.85;100.00;101221.38;5043209;28;20104;-77
2023/12/30 10:50:53;;;;;;;12.15;2.90;;;;;;;7.90;100.00;101210.84;5045052;28;20378;-76
2023/12/30 10:53:25;;;;;;;10.80;2.72;;;;;;;7.92;100.00;101216.03;5043067;28;20028;-76
2023/12/30 10:55:55;;;;;;;15.13;3.15;;;;;;;7.93;100.00;101208.16;5038686;28;20032;-76
2023/12/30 10:58:22;;;;;;;11.75;3.15;;;;;;;7.93;100.00;101204.69;5047854;28;20044;-76
2023/12/30 11:00:52;;;;;;;12.23;2.50;;;;;;;7.97;100.00;101211.56;5046551;28;20045;-76
2023/12/30 11:03:19;;;;;;;11.10;3.45;;;;;;;8.01;100.00;101206.22;5048098;28;20036;-76
2023/12/30 11:06:00;;;;;;;24.90;3.53;;;;;;;8.04;100.00;101203.56;5047770;28;20344;-76
2023/12/30 11:08:25;;;;;;;7.65;2.85;;;;;;;8.07;100.00;101202.59;5044564;28;20037;-76
2023/12/30 11:10:51;;;;;;;12.23;3.35;;;;;;;8.11;100.00;101206.00;5041299;28;20384;-76
2023/12/30 11:13:20;;;;;;;15.15;3.50;;;;;;;8.08;100.00;101204.34;5037236;28;20103;-76
2023/12/30 11:15:45;;;;;;;12.70;4.45;;;;;;;8.11;100.00;101200.78;5039357;28;20029;-76
2023/12/30 11:18:14;;;;;;;13.07;3.83;;;;;;;8.13;100.00;101198.97;5034169;28;20040;-76
2023/12/30 11:20:46;;;;;;;10.93;3.53;;;;;;;8.16;100.00;101194.53;5037934;28;20072;-76